Time;durP1;ratioP1;P1;durP2;ratioP2;P2;SDS_P1;SDS_P2;PMS_P1;PMS_P2;Temp;Humidity;BMP_temperature;BMP_pressure;BME280_temperature;BME280_humidity;BME280_pressure;Samples;Min_cycle;Max_cycle;Signal;HPM_P1;HPM_P2
2021/07/02 00:02:00;;;;;;;9.27;6.47;;;15.20;48.50;;;;;;5035999;28;20191;-71
2021/07/02 00:04:26;;;;;;;8.73;6.27;;;15.00;47.40;;;;;;5039482;28;20199;-71
2021/07/02 00:06:52;;;;;;;10.50;6.67;;;15.00;48.60;;;;;;5037702;28;20270;-71
2021/07/02 00:09:17;;;;;;;10.87;6.80;;;15.00;48.60;;;;;;5034567;28;20300;-71
2021/07/02 00:11:43;;;;;;;8.03;6.13;;;15.00;49.20;;;;;;5028257;28;20564;-70
2021/07/02 00:14:09;;;;;;;7.97;6.10;;;15.00;48.70;;;;;;5035554;28;20210;-71
2021/07/02 00:16:35;;;;;;;8.70;6.60;;;15.00;50.70;;;;;;5035138;28;20286;-71
2021/07/02 00:19:01;;;;;;;10.10;7.27;;;14.90;50.00;;;;;;5037856;28;20658;-71
2021/07/02 00:21:27;;;;;;;9.90;7.37;;;14.90;50.70;;;;;;5037569;28;20575;-71
2021/07/02 00:23:52;;;;;;;10.03;6.33;;;14.90;50.70;;;;;;5033626;28;20191;-71
2021/07/02 00:26:18;;;;;;;9.70;7.10;;;14.90;50.70;;;;;;5036592;28;20239;-70
2021/07/02 00:28:44;;;;;;;9.73;7.17;;;14.90;49.90;;;;;;5015531;28;20584;-71
2021/07/02 00:31:10;;;;;;;12.27;6.97;;;14.90;49.30;;;;;;5032040;28;20282;-71
2021/07/02 00:33:35;;;;;;;10.60;7.97;;;14.90;50.20;;;;;;5036123;28;20690;-71
2021/07/02 00:36:01;;;;;;;10.17;6.60;;;15.00;49.60;;;;;;5036671;28;20766;-71
2021/07/02 00:38:27;;;;;;;10.27;7.97;;;14.90;49.70;;;;;;5035565;28;20223;-71
2021/07/02 00:40:52;;;;;;;10.13;7.00;;;15.00;48.20;;;;;;5037535;28;20534;-71
2021/07/02 00:43:18;;;;;;;11.73;7.90;;;14.80;49.10;;;;;;5020292;28;20195;-71
2021/07/02 00:45:44;;;;;;;9.33;6.53;;;15.00;49.10;;;;;;5038988;28;20199;-71
2021/07/02 00:48:09;;;;;;;10.77;6.87;;;15.00;48.40;;;;;;5034529;28;20196;-71
2021/07/02 00:50:35;;;;;;;8.63;6.57;;;15.00;48.80;;;;;;5032605;28;20199;-70
2021/07/02 00:53:01;;;;;;;11.23;7.40;;;15.00;47.60;;;;;;5034094;28;20667;-71
2021/07/02 00:55:27;;;;;;;9.97;6.93;;;15.00;48.40;;;;;;5020208;28;20651;-71
2021/07/02 00:57:53;;;;;;;12.93;7.00;;;15.00;45.60;;;;;;5018003;28;20198;-70
2021/07/02 01:00:19;;;;;;;11.83;7.27;;;15.00;46.40;;;;;;5020266;28;20199;-71
2021/07/02 01:02:44;;;;;;;8.97;7.07;;;15.00;47.00;;;;;;5034734;28;20236;-70
2021/07/02 01:05:11;;;;;;;8.60;7.50;;;15.00;46.30;;;;;;5036729;28;20190;-71
2021/07/02 01:07:37;;;;;;;11.40;6.77;;;15.00;45.80;;;;;;5033233;28;20212;-71
2021/07/02 01:10:03;;;;;;;11.03;7.70;;;15.00;46.20;;;;;;5019687;28;20210;-70
2021/07/02 01:12:29;;;;;;;9.47;7.07;;;15.00;44.70;;;;;;5040242;28;20191;-71
2021/07/02 01:14:55;;;;;;;10.67;7.87;;;14.90;46.20;;;;;;5015996;28;20186;-71
2021/07/02 01:17:20;;;;;;;10.63;7.73;;;14.90;46.20;;;;;;5034238;28;20193;-70
2021/07/02 01:19:51;;;;;;;8.83;7.50;;;15.00;45.60;;;;;;5038330;28;20548;-72
2021/07/02 01:22:25;;;;;;;11.27;7.27;;;15.00;46.30;;;;;;5033255;28;20269;-72
2021/07/02 01:24:50;;;;;;;10.03;7.20;;;14.80;46.10;;;;;;5033152;28;20248;-71
2021/07/02 01:27:18;;;;;;;10.47;6.83;;;14.90;45.90;;;;;;5039008;28;20266;-71
2021/07/02 01:29:44;;;;;;;9.13;7.17;;;14.90;46.20;;;;;;5037545;28;20747;-71
2021/07/02 01:32:11;;;;;;;12.53;7.63;;;14.90;45.50;;;;;;5033057;28;20195;-71
2021/07/02 01:34:37;;;;;;;9.33;7.00;;;14.90;46.10;;;;;;5028779;28;20202;-70
2021/07/02 01:37:04;;;;;;;10.40;7.07;;;15.00;46.10;;;;;;5038868;28;20209;-71
2021/07/02 01:39:30;;;;;;;8.50;6.00;;;15.00;45.00;;;;;;5033206;28;20207;-71
2021/07/02 01:41:56;;;;;;;9.40;6.50;;;15.00;45.90;;;;;;5030043;28;20658;-71
2021/07/02 01:44:21;;;;;;;10.27;7.40;;;14.90;45.90;;;;;;5035290;28;20226;-71
2021/07/02 01:46:48;;;;;;;8.40;6.93;;;14.90;44.50;;;;;;5037613;28;20538;-71
2021/07/02 01:49:14;;;;;;;10.77;7.90;;;15.00;45.80;;;;;;5037054;28;20203;-71
2021/07/02 01:51:40;;;;;;;9.30;7.77;;;15.00;45.00;;;;;;5030526;28;20244;-71
2021/07/02 01:54:06;;;;;;;10.93;7.43;;;15.00;45.40;;;;;;5026931;28;20465;-71
2021/07/02 01:56:31;;;;;;;10.23;7.97;;;15.00;46.20;;;;;;5033144;28;20660;-71
2021/07/02 01:58:57;;;;;;;9.77;7.70;;;15.00;45.00;;;;;;5030926;28;20215;-71
2021/07/02 02:01:23;;;;;;;8.90;7.07;;;15.00;46.40;;;;;;5032571;28;20274;-72
2021/07/02 02:03:48;;;;;;;9.63;7.07;;;15.00;45.50;;;;;;5033977;28;20192;-70
2021/07/02 02:06:14;;;;;;;9.63;7.83;;;15.10;45.90;;;;;;5032035;28;20241;-71
2021/07/02 02:08:40;;;;;;;8.27;6.07;;;15.00;46.60;;;;;;5034357;28;23684;-71
2021/07/02 02:11:05;;;;;;;12.30;6.73;;;15.00;46.40;;;;;;5034556;28;21146;-71
2021/07/02 02:13:31;;;;;;;8.13;7.27;;;15.10;46.40;;;;;;5033217;28;20291;-71
2021/07/02 02:15:56;;;;;;;9.17;7.33;;;14.90;47.10;;;;;;5036248;28;20193;-71
2021/07/02 02:18:22;;;;;;;9.80;6.77;;;14.90;48.40;;;;;;5031682;28;20218;-72
2021/07/02 02:20:47;;;;;;;12.07;7.37;;;14.90;47.80;;;;;;5035747;28;20267;-70
2021/07/02 02:23:13;;;;;;;8.57;6.50;;;14.90;46.70;;;;;;5031258;28;20203;-71
2021/07/02 02:25:39;;;;;;;11.50;7.07;;;15.00;46.60;;;;;;5035373;28;23440;-71
2021/07/02 02:28:04;;;;;;;8.97;7.23;;;15.00;46.70;;;;;;5055456;22;21097;-72
2021/07/02 02:30:30;;;;;;;9.60;6.60;;;15.00;47.60;;;;;;5053199;28;20222;-71
2021/07/02 02:32:57;;;;;;;10.73;7.27;;;15.00;47.00;;;;;;5055420;28;20634;-71
2021/07/02 02:35:23;;;;;;;9.37;7.83;;;15.00;46.10;;;;;;5062358;22;20679;-72
2021/07/02 02:37:48;;;;;;;11.47;7.10;;;15.00;46.20;;;;;;5061683;28;20188;-71
2021/07/02 02:40:14;;;;;;;9.60;7.00;;;15.20;45.60;;;;;;5055000;28;20248;-71
2021/07/02 02:42:40;;;;;;;10.00;7.20;;;15.00;46.30;;;;;;5060490;28;20562;-69
2021/07/02 02:45:06;;;;;;;8.83;6.50;;;14.90;47.40;;;;;;5081445;22;20257;-71
2021/07/02 02:47:32;;;;;;;9.40;6.50;;;15.00;47.90;;;;;;5072532;28;20217;-71
2021/07/02 02:49:57;;;;;;;9.97;6.90;;;15.00;46.30;;;;;;5071929;28;20247;-70
2021/07/02 02:52:23;;;;;;;7.80;6.77;;;15.00;47.30;;;;;;5073879;28;20250;-71
2021/07/02 02:54:48;;;;;;;10.00;7.23;;;15.00;46.30;;;;;;5072287;28;20234;-71
2021/07/02 02:57:14;;;;;;;7.77;6.37;;;;;;;;;;5082378;22;20190;-71
2021/07/02 02:59:41;;;;;;;10.57;7.00;;;15.00;46.10;;;;;;5060967;28;20227;-71
2021/07/02 03:02:07;;;;;;;10.23;7.33;;;14.80;46.20;;;;;;5060427;28;20187;-71
2021/07/02 03:04:35;;;;;;;12.63;7.43;;;15.00;46.60;;;;;;5075305;22;20235;-71
2021/07/02 03:07:02;;;;;;;10.00;7.03;;;15.00;46.20;;;;;;5069652;28;20598;-71
2021/07/02 03:09:28;;;;;;;14.70;7.57;;;15.00;46.20;;;;;;5070828;28;20222;-71
2021/07/02 03:11:54;;;;;;;9.47;6.63;;;15.00;46.00;;;;;;5071286;28;20240;-71
2021/07/02 03:14:20;;;;;;;14.10;7.63;;;15.00;45.80;;;;;;5082604;22;20238;-71
2021/07/02 03:16:47;;;;;;;8.23;6.93;;;14.90;46.30;;;;;;5075572;28;20217;-71
2021/07/02 03:19:13;;;;;;;13.93;7.30;;;14.90;47.70;;;;;;5082025;28;20938;-71
2021/07/02 03:21:40;;;;;;;10.43;6.83;;;14.90;47.00;;;;;;5076920;22;20240;-71
2021/07/02 03:24:06;;;;;;;8.83;7.20;;;14.90;47.60;;;;;;5086111;23;20274;-71
2021/07/02 03:26:32;;;;;;;10.13;6.90;;;14.90;47.70;;;;;;5081157;28;20190;-71
2021/07/02 03:28:58;;;;;;;8.47;7.07;;;14.90;47.70;;;;;;5067417;28;20254;-71
2021/07/02 03:31:23;;;;;;;9.63;6.70;;;14.90;48.10;;;;;;5065260;28;20242;-71
2021/07/02 03:33:49;;;;;;;12.23;7.27;;;14.90;47.10;;;;;;5103930;22;20318;-71
2021/07/02 03:36:14;;;;;;;8.50;6.70;;;14.90;47.30;;;;;;5096703;28;20206;-71
2021/07/02 03:38:40;;;;;;;11.57;7.73;;;14.90;47.40;;;;;;5086916;28;20194;-71
2021/07/02 03:41:06;;;;;;;9.40;6.90;;;14.90;47.90;;;;;;5093427;28;20181;-71
2021/07/02 03:43:32;;;;;;;11.73;7.63;;;15.00;49.20;;;;;;5095252;28;20193;-71
2021/07/02 03:45:57;;;;;;;9.83;7.57;;;15.00;48.80;;;;;;5098055;28;20264;-70
2021/07/02 03:48:23;;;;;;;10.27;8.17;;;14.90;48.60;;;;;;5098352;28;20240;-70
2021/07/02 03:50:48;;;;;;;11.97;8.07;;;14.80;49.50;;;;;;5102486;22;20246;-70
2021/07/02 03:53:14;;;;;;;11.60;7.77;;;15.00;49.60;;;;;;5080619;28;20197;-71
2021/07/02 03:55:40;;;;;;;9.50;8.07;;;14.90;50.20;;;;;;5082605;28;20201;-70
2021/07/02 03:58:05;;;;;;;10.20;7.47;;;15.00;48.10;;;;;;5084795;28;20624;-70
2021/07/02 04:00:31;;;;;;;12.53;8.53;;;14.90;47.90;;;;;;5063478;28;20267;-71
2021/07/02 04:02:57;;;;;;;11.40;7.83;;;15.00;48.50;;;;;;5087379;22;20235;-70
2021/07/02 04:05:22;;;;;;;9.47;7.27;;;15.10;48.20;;;;;;5090850;22;20237;-70
2021/07/02 04:07:48;;;;;;;10.43;7.70;;;15.10;48.40;;;;;;5080571;28;20643;-70
2021/07/02 04:10:13;;;;;;;11.10;7.70;;;15.10;48.20;;;;;;5080293;28;20214;-71
2021/07/02 04:12:39;;;;;;;10.07;7.63;;;15.10;49.20;;;;;;5067780;22;20234;-71
2021/07/02 04:15:07;;;;;;;9.60;6.50;;;15.20;48.50;;;;;;5057785;22;20747;-71
2021/07/02 04:17:33;;;;;;;10.00;7.20;;;15.20;47.30;;;;;;5037719;28;20229;-71
2021/07/02 04:19:58;;;;;;;9.87;7.03;;;15.20;48.40;;;;;;5058721;28;20620;-71
2021/07/02 04:22:24;;;;;;;14.60;8.13;;;15.20;46.90;;;;;;5064695;22;20232;-71
2021/07/02 04:24:50;;;;;;;10.70;7.33;;;15.30;46.70;;;;;;5064337;28;20195;-71
2021/07/02 04:27:16;;;;;;;9.47;7.03;;;15.20;48.00;;;;;;5057322;28;20283;-70
2021/07/02 04:29:43;;;;;;;8.43;7.47;;;15.10;49.00;;;;;;5066124;23;20317;-70
2021/07/02 04:32:09;;;;;;;11.33;7.63;;;15.20;48.50;;;;;;5079624;28;20315;-70
2021/07/02 04:34:35;;;;;;;14.73;7.10;;;15.10;48.90;;;;;;5087599;22;20314;-70
2021/07/02 04:37:01;;;;;;;13.83;7.07;;;15.10;49.50;;;;;;5080184;28;20571;-71
2021/07/02 04:39:26;;;;;;;13.33;8.20;;;15.10;48.70;;;;;;5089137;22;20637;-70
2021/07/02 04:41:52;;;;;;;10.53;7.43;;;15.00;50.00;;;;;;5079885;28;20214;-71
2021/07/02 04:44:18;;;;;;;12.17;8.37;;;15.00;50.70;;;;;;5082026;28;20199;-71
2021/07/02 04:46:43;;;;;;;13.30;7.83;;;15.00;50.20;;;;;;5077215;28;20204;-70
2021/07/02 04:49:09;;;;;;;13.50;7.73;;;15.00;50.80;;;;;;5077327;28;20222;-70
2021/07/02 04:51:35;;;;;;;10.37;7.37;;;15.00;51.20;;;;;;5079467;28;20189;-70
2021/07/02 04:54:00;;;;;;;14.37;8.07;;;15.00;50.70;;;;;;5079667;28;20680;-71
2021/07/02 04:56:26;;;;;;;13.53;8.33;;;15.00;50.00;;;;;;5079074;22;20226;-71
2021/07/02 04:58:55;;;;;;;11.97;7.53;;;15.00;50.20;;;;;;5039231;28;20228;-71
2021/07/02 05:01:24;;;;;;;11.53;7.90;;;15.10;52.10;;;;;;5041527;28;20192;-70
2021/07/02 05:03:50;;;;;;;11.83;7.27;;;15.30;50.30;;;;;;5081835;22;20245;-71
2021/07/02 05:06:16;;;;;;;8.93;7.00;;;15.60;47.50;;;;;;5069973;22;20249;-70
2021/07/02 05:08:42;;;;;;;10.27;7.57;;;15.80;44.90;;;;;;5065818;22;20278;-70
2021/07/02 05:11:09;;;;;;;11.53;7.07;;;16.00;43.10;;;;;;5056971;28;20209;-70
2021/07/02 05:13:39;;;;;;;8.90;6.63;;;16.10;41.10;;;;;;5066620;22;20563;-70
2021/07/02 05:16:06;;;;;;;8.73;6.57;;;16.20;40.60;;;;;;5075413;28;20188;-71
2021/07/02 05:18:31;;;;;;;10.37;7.00;;;16.50;36.70;;;;;;5083605;22;20236;-70
2021/07/02 05:20:57;;;;;;;11.20;6.30;;;16.60;35.70;;;;;;5063634;28;20203;-71
2021/07/02 05:23:23;;;;;;;7.60;6.23;;;16.70;35.50;;;;;;5079909;28;20194;-71
2021/07/02 05:25:48;;;;;;;8.83;6.27;;;16.70;35.00;;;;;;5078542;28;20242;-71
2021/07/02 05:28:14;;;;;;;13.57;6.60;;;16.80;34.20;;;;;;5078615;28;20268;-70
2021/07/02 05:30:40;;;;;;;11.50;6.87;;;16.70;33.60;;;;;;5079753;23;21307;-71
2021/07/02 05:33:05;;;;;;;7.97;7.07;;;16.80;34.20;;;;;;5078067;28;20198;-70
2021/07/02 05:35:31;;;;;;;9.73;6.80;;;;;;;;;;5084582;22;20563;-71
2021/07/02 05:37:57;;;;;;;9.80;6.70;;;16.60;31.10;;;;;;5076348;28;20247;-71
2021/07/02 05:40:23;;;;;;;9.83;7.13;;;16.70;34.10;;;;;;5076450;28;20311;-71
2021/07/02 05:42:48;;;;;;;7.63;6.17;;;16.70;33.10;;;;;;5069948;28;20638;-71
2021/07/02 05:45:14;;;;;;;9.53;6.83;;;16.80;33.30;;;;;;5079447;28;20646;-71
2021/07/02 05:47:50;;;;;;;8.70;6.60;;;17.10;32.30;;;;;;5071451;28;20198;-71
2021/07/02 05:50:18;;;;;;;16.27;6.83;;;17.20;30.80;;;;;;5084988;22;20246;-71
2021/07/02 05:52:44;;;;;;;7.60;5.63;;;17.30;31.40;;;;;;5048054;28;20211;-71
2021/07/02 05:55:11;;;;;;;10.13;6.27;;;17.30;29.90;;;;;;5040613;28;20201;-71
2021/07/02 05:57:37;;;;;;;8.47;5.40;;;17.30;30.40;;;;;;5036139;28;20306;-71
2021/07/02 06:00:05;;;;;;;10.03;6.20;;;17.30;30.90;;;;;;5039013;28;20221;-71
2021/07/02 06:02:31;;;;;;;8.33;6.50;;;17.50;30.10;;;;;;5032221;28;20923;-71
2021/07/02 06:04:56;;;;;;;14.20;7.27;;;17.40;30.00;;;;;;5030308;28;20213;-70
2021/07/02 06:07:22;;;;;;;9.03;6.80;;;17.50;30.80;;;;;;5038658;28;20937;-71
2021/07/02 06:09:47;;;;;;;8.60;6.70;;;17.60;31.20;;;;;;5034280;28;20308;-71
2021/07/02 06:12:13;;;;;;;10.57;7.07;;;17.70;29.90;;;;;;5038742;28;20190;-70
2021/07/02 06:14:39;;;;;;;13.13;8.33;;;17.80;29.20;;;;;;5034685;28;20189;-71
2021/07/02 06:17:04;;;;;;;10.27;7.30;;;17.60;29.70;;;;;;5031914;28;20189;-70
2021/07/02 06:19:30;;;;;;;11.03;6.30;;;17.70;29.10;;;;;;5080047;22;20710;-71
2021/07/02 06:21:56;;;;;;;11.47;7.37;;;17.50;30.10;;;;;;5071051;28;20196;-70
2021/07/02 06:24:21;;;;;;;9.70;6.07;;;17.70;30.40;;;;;;5060954;28;20247;-71
2021/07/02 06:26:47;;;;;;;9.80;6.37;;;17.70;30.30;;;;;;5061162;28;20198;-71
2021/07/02 06:29:12;;;;;;;10.90;6.20;;;17.60;31.20;;;;;;5066401;28;20223;-71
2021/07/02 06:31:38;;;;;;;8.40;6.27;;;17.80;31.20;;;;;;5064384;28;20273;-71
2021/07/02 06:34:03;;;;;;;9.07;7.00;;;18.00;30.50;;;;;;5082154;28;20193;-71
2021/07/02 06:36:29;;;;;;;9.53;6.70;;;18.20;29.00;;;;;;5055274;22;20242;-71
2021/07/02 06:38:55;;;;;;;10.03;6.47;;;18.10;27.70;;;;;;5022555;28;20281;-71
2021/07/02 06:41:20;;;;;;;9.13;6.23;;;17.90;28.90;;;;;;5048768;28;20194;-72
2021/07/02 06:43:46;;;;;;;9.03;6.83;;;17.80;28.00;;;;;;5098991;23;20692;-72
2021/07/02 06:46:13;;;;;;;9.00;5.77;;;17.90;29.10;;;;;;5104830;28;20198;-71
2021/07/02 06:48:38;;;;;;;8.63;5.87;;;17.70;28.20;;;;;;5104842;27;20307;-71
2021/07/02 06:51:04;;;;;;;11.27;6.67;;;17.80;29.80;;;;;;5100886;27;20746;-71
2021/07/02 06:53:30;;;;;;;16.40;6.87;;;18.10;29.00;;;;;;5104808;28;20177;-71
2021/07/02 06:55:55;;;;;;;7.80;6.40;;;18.30;27.00;;;;;;5092244;28;20604;-71
2021/07/02 06:58:21;;;;;;;8.40;5.97;;;18.00;26.40;;;;;;5091478;22;20257;-72
2021/07/02 07:00:47;;;;;;;8.87;6.30;;;18.00;27.10;;;;;;5078338;28;20552;-72
2021/07/02 07:03:13;;;;;;;8.43;5.60;;;18.30;26.60;;;;;;5075654;22;20242;-72
2021/07/02 07:05:40;;;;;;;7.90;5.53;;;18.50;27.60;;;;;;5069870;28;20653;-72
2021/07/02 07:08:07;;;;;;;9.73;6.40;;;18.90;27.00;;;;;;5070367;28;20186;-72
2021/07/02 07:10:34;;;;;;;6.70;5.67;;;19.20;23.40;;;;;;5071889;28;20226;-72
2021/07/02 07:13:00;;;;;;;10.40;6.07;;;18.80;24.90;;;;;;5071238;28;20185;-72
2021/07/02 07:15:27;;;;;;;8.57;6.07;;;19.00;23.20;;;;;;5039450;22;20235;-72
2021/07/02 07:17:54;;;;;;;7.43;5.93;;;19.00;22.80;;;;;;5040094;28;20213;-72
2021/07/02 07:20:20;;;;;;;5.77;5.00;;;19.20;23.10;;;;;;5042215;28;20199;-72
2021/07/02 07:22:47;;;;;;;7.63;5.70;;;19.30;23.80;;;;;;5035943;28;20181;-72
2021/07/02 07:25:13;;;;;;;8.87;6.30;;;19.60;22.60;;;;;;5041293;28;20211;-72
2021/07/02 07:27:39;;;;;;;7.80;5.23;;;20.20;21.30;;;;;;5045044;22;20258;-72
2021/07/02 07:30:06;;;;;;;6.47;5.17;;;20.50;21.00;;;;;;5040215;28;20240;-71
2021/07/02 07:32:33;;;;;;;6.40;5.47;;;20.80;19.70;;;;;;5041093;28;20598;-71
2021/07/02 07:35:01;;;;;;;7.53;5.80;;;21.00;15.90;;;;;;5039556;28;20634;-76
2021/07/02 07:37:30;;;;;;;8.83;5.97;;;21.20;15.10;;;;;;5087672;22;20225;-73
2021/07/02 07:39:55;;;;;;;7.10;5.63;;;21.20;14.40;;;;;;5091707;28;20204;-73
2021/07/02 07:42:21;;;;;;;7.63;5.90;;;21.00;13.60;;;;;;5088984;28;20337;-73
2021/07/02 07:44:47;;;;;;;8.23;5.90;;;20.90;15.60;;;;;;5085106;28;20187;-73
2021/07/02 07:47:12;;;;;;;9.57;5.70;;;20.70;16.80;;;;;;5079978;28;20188;-73
2021/07/02 07:49:38;;;;;;;9.27;6.23;;;20.70;15.80;;;;;;5084092;28;20702;-72
2021/07/02 07:54:40;;;;;;;7.93;5.30;;;20.70;17.30;;;;;;5088138;28;20228;-72
2021/07/02 07:57:06;;;;;;;6.33;5.30;;;20.80;17.30;;;;;;5089007;28;20319;-73
2021/07/02 07:59:33;;;;;;;6.27;5.40;;;21.20;11.80;;;;;;5082438;28;20321;-73
2021/07/02 08:01:59;;;;;;;6.20;5.60;;;20.90;9.50;;;;;;5096777;28;20188;-72
2021/07/02 08:04:24;;;;;;;7.73;5.30;;;20.90;8.70;;;;;;5081870;28;20784;-71
2021/07/02 08:06:51;;;;;;;5.90;4.93;;;21.20;9.70;;;;;;5084875;28;20204;-73
2021/07/02 08:09:18;;;;;;;5.70;5.07;;;21.00;11.00;;;;;;5084606;28;20204;-74
2021/07/02 08:11:44;;;;;;;6.10;4.40;;;21.40;10.50;;;;;;5082309;28;20542;-73
2021/07/02 08:14:10;;;;;;;6.97;4.70;;;21.50;7.90;;;;;;5083418;28;20251;-72
2021/07/02 08:16:37;;;;;;;6.67;4.90;;;21.40;8.00;;;;;;5082042;28;22258;-74
2021/07/02 08:19:03;;;;;;;9.13;5.27;;;21.10;8.60;;;;;;5079115;28;20205;-72
2021/07/02 08:21:29;;;;;;;8.83;6.77;;;21.10;10.00;;;;;;5093268;22;20272;-73
2021/07/02 08:23:55;;;;;;;6.20;4.90;;;21.10;9.80;;;;;;5060743;28;20200;-66
2021/07/02 08:26:21;;;;;;;6.60;5.00;;;21.10;9.70;;;;;;5058512;28;20200;-66
2021/07/02 08:31:32;;;;;;;6.83;5.20;;;21.00;9.60;;;;;;5057577;28;20426;-67
2021/07/02 08:33:58;;;;;;;6.57;5.30;;;21.20;8.40;;;;;;5054040;28;20189;-67
2021/07/02 08:36:24;;;;;;;6.90;5.37;;;21.20;9.70;;;;;;5057227;28;20674;-72
2021/07/02 08:38:49;;;;;;;7.97;5.70;;;21.20;10.80;;;;;;5060680;28;20204;-68
2021/07/02 08:41:15;;;;;;;7.67;5.13;;;21.20;10.90;;;;;;5059086;28;20195;-67
2021/07/02 08:43:43;;;;;;;5.90;5.30;;;20.70;9.30;;;;;;5059640;28;20651;-68
2021/07/02 08:46:16;;;;;;;8.07;5.40;;;20.50;11.40;;;;;;5059725;28;20327;-69
2021/07/02 08:48:45;;;;;;;6.13;5.30;;;20.30;10.50;;;;;;5056515;28;20216;-68
2021/07/02 08:51:11;;;;;;;8.00;5.63;;;20.60;11.00;;;;;;5059054;28;20275;-69
2021/07/02 08:53:38;;;;;;;9.13;5.53;;;20.80;9.50;;;;;;5058967;28;20271;-71
2021/07/02 08:56:04;;;;;;;7.03;5.03;;;21.00;10.90;;;;;;5053871;28;20204;-68
2021/07/02 08:58:31;;;;;;;6.77;5.20;;;21.40;6.70;;;;;;5060778;28;20205;-69
2021/07/02 09:00:57;;;;;;;7.00;4.90;;;21.50;8.30;;;;;;5060801;28;20208;-69
2021/07/02 09:03:30;;;;;;;7.03;4.90;;;21.60;5.90;;;;;;5059263;28;20199;-68
2021/07/02 09:06:08;;;;;;;7.27;4.47;;;21.40;4.10;;;;;;5054324;28;20196;-71
2021/07/02 09:08:35;;;;;;;6.00;5.00;;;21.40;3.70;;;;;;5058584;28;20229;-69
2021/07/02 09:11:21;;;;;;;7.47;4.70;;;21.50;3.60;;;;;;5059530;28;20183;-75
2021/07/02 09:13:47;;;;;;;8.70;4.63;;;21.40;3.80;;;;;;5061509;28;20638;-70
2021/07/02 09:16:28;;;;;;;4.77;4.30;;;21.40;4.80;;;;;;5057305;28;20242;-67
2021/07/02 09:18:54;;;;;;;5.57;4.73;;;21.80;1.50;;;;;;5056084;28;20646;-68
2021/07/02 09:21:28;;;;;;;6.70;4.73;;;21.80;2.30;;;;;;5057514;28;20206;-68
2021/07/02 09:23:57;;;;;;;5.73;5.00;;;21.90;2.70;;;;;;5054385;28;20187;-68
2021/07/02 09:26:39;;;;;;;6.90;4.60;;;21.70;2.80;;;;;;5057437;28;20197;-68
2021/07/02 09:29:21;;;;;;;4.87;4.37;;;21.80;2.90;;;;;;5057030;28;20248;-78
2021/07/02 09:32:00;;;;;;;5.63;4.10;;;21.90;2.00;;;;;;5058749;28;21071;-69
2021/07/02 09:34:51;;;;;;;4.70;4.30;;;21.90;2.00;;;;;;5059955;28;20194;-68
2021/07/02 09:37:21;;;;;;;33.07;24.07;;;21.80;1.40;;;;;;5052619;22;20233;-68
2021/07/02 09:39:47;;;;;;;32.30;22.33;;;21.90;2.50;;;;;;5032608;28;20243;-71
2021/07/02 09:42:27;;;;;;;6.90;4.83;;;21.90;1.80;;;;;;5035512;28;20261;-72
2021/07/02 09:45:06;;;;;;;7.27;3.97;;;21.80;1.60;;;;;;5035453;28;20198;-69
2021/07/02 09:47:33;;;;;;;4.63;4.07;;;21.90;1.00;;;;;;5034620;28;20186;-76
2021/07/02 09:50:18;;;;;;;5.80;4.47;;;21.60;1.00;;;;;;5075242;22;20690;-75
2021/07/02 09:52:46;;;;;;;6.00;4.27;;;21.70;1.00;;;;;;5078209;28;20190;-75
2021/07/02 09:55:13;;;;;;;6.93;4.77;;;21.60;1.00;;;;;;5073429;28;20186;-75
2021/07/02 09:57:39;;;;;;;7.40;3.90;;;21.70;1.00;;;;;;5084141;28;20236;-75
2021/07/02 10:00:09;;;;;;;6.63;4.60;;;21.70;1.00;;;;;;5070914;28;20193;-70
2021/07/02 10:02:34;;;;;;;4.37;3.97;;;22.10;1.00;;;;;;5076129;28;20200;-69
2021/07/02 10:05:02;;;;;;;6.27;3.97;;;22.70;1.00;;;;;;5074971;28;20193;-67
2021/07/02 10:07:28;;;;;;;5.17;4.23;;;22.70;1.00;;;;;;5071143;28;20278;-71
2021/07/02 10:09:54;;;;;;;5.83;4.23;;;22.90;1.00;;;;;;5069711;28;20325;-67
2021/07/02 10:12:20;;;;;;;5.60;4.00;;;22.90;1.00;;;;;;5072073;28;20194;-67
2021/07/02 10:14:49;;;;;;;5.70;4.30;;;23.00;1.00;;;;;;5081412;28;20192;-73
2021/07/02 10:17:17;;;;;;;4.20;3.80;;;23.10;1.00;;;;;;5080464;28;20224;-72
2021/07/02 10:19:43;;;;;;;20.43;14.80;;;22.90;1.00;;;;;;5078528;28;20191;-68
2021/07/02 10:22:10;;;;;;;7.20;6.50;;;22.80;1.00;;;;;;5074681;28;20189;-66
2021/07/02 10:24:37;;;;;;;5.03;4.40;;;23.10;1.00;;;;;;5074443;28;20183;-64
2021/07/02 10:27:03;;;;;;;6.07;4.40;;;22.90;1.00;;;;;;5075099;28;20280;-66
2021/07/02 10:29:32;;;;;;;4.43;4.03;;;22.60;1.00;;;;;;5079163;28;20310;-67
2021/07/02 10:31:58;;;;;;;5.27;3.90;;;22.60;1.00;;;;;;5076162;28;20188;-74
2021/07/02 10:34:24;;;;;;;5.13;4.63;;;22.60;1.00;;;;;;5079312;28;20191;-74
2021/07/02 10:36:50;;;;;;;5.33;3.73;;;22.40;1.00;;;;;;5081639;28;20240;-70
2021/07/02 10:39:35;;;;;;;6.40;4.10;;;22.60;1.00;;;;;;5073169;28;20220;-72
2021/07/02 10:42:13;;;;;;;4.90;3.73;;;23.10;1.00;;;;;;5079707;28;20213;-76
2021/07/02 10:45:06;;;;;;;4.93;4.07;;;23.40;1.00;;;;;;5080134;28;20228;-74
2021/07/02 10:47:48;;;;;;;6.07;4.13;;;23.30;1.00;;;;;;5060853;28;20271;-74
2021/07/02 10:50:38;;;;;;;5.53;4.27;;;23.00;1.00;;;;;;5081240;28;20613;-69
2021/07/02 10:53:22;;;;;;;5.33;4.60;;;23.00;1.00;;;;;;5076662;28;20585;-70
2021/07/02 10:55:48;;;;;;;4.63;4.13;;;22.50;1.00;;;;;;5078988;28;20201;-70
2021/07/02 10:58:13;;;;;;;4.53;4.07;;;22.60;1.00;;;;;;5074701;28;20212;-70
2021/07/02 11:01:07;;;;;;;7.03;4.10;;;22.50;1.00;;;;;;5075252;28;20196;-72
2021/07/02 11:03:33;;;;;;;4.40;4.00;;;22.50;1.00;;;;;;5078879;28;20187;-70
2021/07/02 11:06:25;;;;;;;4.77;4.37;;;22.70;1.00;;;;;;5075101;28;20193;-69
2021/07/02 11:08:51;;;;;;;7.07;4.07;;;22.80;1.00;;;;;;5075392;28;20222;-69
2021/07/02 11:11:16;;;;;;;4.93;3.90;;;23.00;1.00;;;;;;5072756;28;20565;-69
2021/07/02 11:14:08;;;;;;;4.10;3.63;;;23.30;1.00;;;;;;5075558;28;20294;-69
2021/07/02 11:16:41;;;;;;;5.33;4.13;;;23.60;1.00;;;;;;5069446;28;20196;-70
2021/07/02 11:19:33;;;;;;;4.93;4.33;;;23.50;1.00;;;;;;5079239;28;20200;-69
2021/07/02 11:22:22;;;;;;;5.40;4.03;;;24.00;1.00;;;;;;5074352;28;20193;-69
2021/07/02 11:25:00;;;;;;;5.13;4.30;;;24.20;1.00;;;;;;5080559;28;20196;-69
2021/07/02 11:27:40;;;;;;;4.80;4.30;;;24.30;1.00;;;;;;5073298;28;20196;-69
2021/07/02 11:30:34;;;;;;;5.03;3.93;;;24.30;1.00;;;;;;5077149;28;20218;-70
2021/07/02 11:33:01;;;;;;;3.97;3.67;;;23.90;1.00;;;;;;5076529;28;20182;-69
2021/07/02 11:35:28;;;;;;;5.70;4.33;;;23.80;1.00;;;;;;5080603;28;20195;-70
2021/07/02 11:38:03;;;;;;;4.83;4.00;;;23.80;1.00;;;;;;5078074;28;20218;-70
2021/07/02 11:40:36;;;;;;;4.90;4.30;;;23.60;1.00;;;;;;5080879;28;20204;-70
2021/07/02 11:43:05;;;;;;;5.57;3.87;;;23.80;1.00;;;;;;5079968;28;20273;-70
2021/07/02 11:45:53;;;;;;;5.93;4.67;;;24.20;1.00;;;;;;5075812;28;20224;-70
2021/07/02 11:48:21;;;;;;;5.50;4.00;;;24.60;1.00;;;;;;5076530;28;20191;-70
2021/07/02 11:50:55;;;;;;;5.47;3.97;;;25.20;1.00;;;;;;5075239;28;20205;-70
2021/07/02 11:53:52;;;;;;;5.43;4.60;;;25.80;1.00;;;;;;5079473;28;20242;-70
2021/07/02 11:56:21;;;;;;;4.82;4.30;;;26.00;1.00;;;;;;5069473;28;20797;-69
2021/07/02 11:59:15;;;;;;;5.85;4.03;;;25.50;1.00;;;;;;5064396;28;20212;-69
2021/07/02 12:01:47;;;;;;;5.32;4.80;;;25.50;1.00;;;;;;5074537;28;20619;-70
2021/07/02 12:04:16;;;;;;;6.55;4.82;;;24.80;1.00;;;;;;5076379;28;20194;-70
2021/07/02 12:06:43;;;;;;;5.27;4.67;;;24.30;1.00;;;;;;5075813;28;20191;-69
2021/07/02 12:09:11;;;;;;;5.77;5.10;;;23.70;1.00;;;;;;5072118;28;20320;-70
2021/07/02 12:11:46;;;;;;;5.53;4.80;;;23.30;1.00;;;;;;5060810;28;20192;-69
2021/07/02 12:14:14;;;;;;;6.60;4.63;;;23.40;1.00;;;;;;5075676;28;20192;-70
2021/07/02 12:16:43;;;;;;;7.17;4.70;;;23.40;1.00;;;;;;5077791;28;20190;-70
2021/07/02 12:19:16;;;;;;;5.37;4.47;;;23.50;1.00;;;;;;5071210;28;20208;-70
2021/07/02 12:22:04;;;;;;;5.63;4.97;;;23.40;1.00;;;;;;5070819;28;20191;-70
2021/07/02 12:24:32;;;;;;;6.10;4.80;;;23.30;1.00;;;;;;5072991;28;20220;-70
2021/07/02 12:27:00;;;;;;;5.27;4.53;;;23.30;1.00;;;;;;5072482;28;20209;-70
2021/07/02 12:29:27;;;;;;;6.13;4.73;;;23.40;1.00;;;;;;5079016;28;20227;-71
2021/07/02 12:31:55;;;;;;;7.03;4.68;;;23.90;1.00;;;;;;5077867;28;20201;-71
2021/07/02 12:34:27;;;;;;;5.35;4.82;;;25.90;1.00;;;;;;5077134;28;20639;-72
2021/07/02 12:37:05;;;;;;;5.18;4.68;;;25.40;1.00;;;;;;5073437;28;20196;-70
2021/07/02 12:39:32;;;;;;;5.95;4.28;;;25.20;1.00;;;;;;5060199;28;20227;-70
2021/07/02 12:42:03;;;;;;;6.28;4.70;;;25.20;1.00;;;;;;5071441;28;20203;-70
2021/07/02 12:44:31;;;;;;;5.70;4.82;;;25.00;1.00;;;;;;5078962;28;20283;-71
2021/07/02 12:46:58;;;;;;;5.28;3.95;;;24.70;1.00;;;;;;5072244;28;20267;-70
2021/07/02 12:49:27;;;;;;;5.40;4.45;;;24.70;1.00;;;;;;5074477;28;20303;-71
2021/07/02 12:52:01;;;;;;;4.80;4.30;;;24.80;1.00;;;;;;5077611;28;20709;-71
2021/07/02 12:57:40;;;;;;;4.50;4.10;;;;;;;;;;5072101;28;20277;-71
2021/07/02 13:00:13;;;;;;;5.70;4.55;;;27.40;1.00;;;;;;5064174;28;20207;-71
2021/07/02 13:02:41;;;;;;;3.88;3.28;;;28.10;1.00;;;;;;5077354;28;20669;-71